Portada
METAR-TAF:

METAR-TAF

Aeropuertos :

Mont-De-Marsan, Francia

latitud: 43-55N, longitud: 000-30W, altitud: 62 m

Observación

El informe se hizo hace 30 minutos, a las 04:00 UTC
Viento 4 kt del oeste-noroeste
Temperatura 19°C
Humedad 83%
Presión 1014 hPa
Visibilidad 10 km o más
Cielo cubierto a una altura de 3400 ft

METAR: LFBM 300400Z AUTO 29004KT 9999 OVC034 19/16 Q1014

Hora: 06:30 (04:30 UTC)

Pronóstico

El informe se hizo hace 14 horas y 30 minutos, a las 14:00 UTC
Pronóstico válido del 29 a las 15 UTC al 30 a las 15 UTC
Viento 5 kt del este
Visibilidad 10 km o más
Cielo nuboso a una altura de 4000 ft
Temporalmente
del 29 a las 22 UTC al 30 a las 07 UTC
Nubes dispersas a una altura de 700 ft
Cielo nuboso a una altura de 3000 ft
lluvia

TAF: LFBM 291400Z 2915/3015 10005KT 9999 BKN040 TEMPO 2922/3007 RA SCT007 BKN030

Observaciones y pronósticos meteorológicos de más de 4000 aeropuertos (mensajes METAR y TAF).

Los puntos amarillos y rojos representan las estaciones disponibles.

Ponga el ratón en el punto deseado para ver el nombre de la estación.

Haga clic para ver las observaciones y los pronósticos meteorológicos.

Para cambiar el mapa : haga clic en los botones verdes con una cruz de color negro para hacer un zoom, en el botón verde con un guión para alejar o en las flechas verdes para mapas adyacentes.


METAR-TAF: